createdAt,value
2019-04-05T00:01:22.194Z,97589.12
2019-04-05T00:03:50.503Z,97587.38
2019-04-05T00:06:18.767Z,97579.48
2019-04-05T00:08:47.074Z,97572.46
2019-04-05T00:11:15.350Z,97579.46
2019-04-05T00:13:43.658Z,97583.43
2019-04-05T00:16:11.933Z,97579.05
2019-04-05T00:18:40.218Z,97575.96
2019-04-05T00:21:08.528Z,97582.98
2019-04-05T00:23:36.812Z,97586.52
2019-04-05T00:26:05.126Z,97583.88
2019-04-05T00:28:33.387Z,97577.74
2019-04-05T00:31:01.676Z,97577.74
2019-04-05T00:33:29.959Z,97568.98
2019-04-05T00:35:58.280Z,97568.16
2019-04-05T00:38:26.547Z,97569.50
2019-04-05T00:40:55.111Z,97571.70
2019-04-05T00:43:23.385Z,97570.41
2019-04-05T00:45:51.657Z,97567.75
2019-04-05T00:48:19.969Z,97572.13
2019-04-05T00:50:48.243Z,97568.64
2019-04-05T00:53:16.543Z,97570.34
2019-04-05T00:55:44.813Z,97577.35
2019-04-05T00:58:13.113Z,97574.28
2019-04-05T01:00:41.391Z,97579.13
2019-04-05T01:03:09.679Z,97578.30
2019-04-05T01:05:37.942Z,97577.89
2019-04-05T01:08:06.244Z,97586.22
2019-04-05T01:10:34.509Z,97577.45
2019-04-05T01:13:02.988Z,97581.83
2019-04-05T01:15:40.636Z,97584.05
2019-04-05T01:18:01.320Z,97584.45
2019-04-05T01:20:32.854Z,97595.39
2019-04-05T01:23:01.113Z,97594.06
2019-04-05T01:25:29.424Z,97598.52
2019-04-05T01:27:57.696Z,97599.38
2019-04-05T01:30:26.005Z,97601.14
2019-04-05T01:32:54.270Z,97610.80
2019-04-05T01:35:22.574Z,97608.17
2019-04-05T01:37:51.016Z,97614.31
2019-04-05T01:40:19.308Z,97626.62
2019-04-05T01:42:47.580Z,97623.55
2019-04-05T01:45:15.904Z,97628.36
2019-04-05T01:47:44.185Z,97636.69
2019-04-05T01:50:12.454Z,97635.83
2019-04-05T01:52:40.752Z,97647.22
2019-04-05T01:55:09.017Z,97650.28
2019-04-05T01:57:37.412Z,97651.98
2019-04-05T02:00:12.899Z,97658.55
2019-04-05T02:02:41.206Z,97662.92
2019-04-05T02:05:09.465Z,97659.88
2019-04-05T02:07:38.234Z,97660.70
2019-04-05T02:10:10.048Z,97655.91
2019-04-05T02:12:38.366Z,97649.31
2019-04-05T02:15:07.007Z,97654.13
2019-04-05T02:17:36.049Z,97647.14
2019-04-05T02:20:07.344Z,97647.17
2019-04-05T02:22:35.613Z,97653.28
2019-04-05T02:25:07.661Z,97644.97
2019-04-05T02:27:35.926Z,97646.28
2019-04-05T02:30:06.082Z,97640.19
2019-04-05T02:32:34.351Z,97637.53
2019-04-05T02:35:02.647Z,97635.80
2019-04-05T02:37:30.909Z,97633.58
2019-04-05T02:39:59.218Z,97634.49
2019-04-05T02:42:27.493Z,97632.75
2019-04-05T02:44:55.787Z,97634.06
2019-04-05T02:47:24.059Z,97630.56
2019-04-05T02:49:52.306Z,97624.88
2019-04-05T02:52:20.585Z,97612.19
2019-04-05T02:54:48.984Z,97628.45
2019-04-05T02:57:17.231Z,97622.33
2019-04-05T02:59:45.495Z,97621.89
2019-04-05T03:02:13.770Z,97617.96
2019-04-05T03:04:42.010Z,97626.75
2019-04-05T03:07:10.275Z,97637.72
2019-04-05T03:09:38.520Z,97635.11
2019-04-05T03:12:06.793Z,97629.39
2019-04-05T03:14:35.036Z,97629.85
2019-04-05T03:17:03.313Z,97631.58
2019-04-05T03:19:32.027Z,97629.40
2019-04-05T03:22:01.956Z,97627.67
2019-04-05T03:24:30.360Z,97622.81
2019-04-05T03:27:00.801Z,97623.69
2019-04-05T03:29:29.050Z,97623.75
2019-04-05T03:31:57.352Z,97627.25
2019-04-05T03:34:25.601Z,97632.92
2019-04-05T03:36:53.869Z,97640.35
2019-04-05T03:39:22.972Z,97640.80
2019-04-05T03:41:51.243Z,97642.59
2019-04-05T03:44:22.846Z,97649.20
2019-04-05T03:46:57.206Z,97649.20
2019-04-05T03:49:19.549Z,97653.11
2019-04-05T03:51:47.789Z,97659.24
2019-04-05T03:54:16.097Z,97664.47
2019-04-05T03:56:44.355Z,97662.26
2019-04-05T03:59:12.803Z,97662.28
2019-04-05T04:01:41.205Z,97662.23
2019-04-05T04:04:09.483Z,97666.20
2019-04-05T04:06:37.725Z,97663.55
2019-04-05T04:09:06.447Z,97667.92
2019-04-05T04:11:34.746Z,97663.98
2019-04-05T04:14:03.035Z,97662.64
2019-04-05T04:16:31.274Z,97667.92
2019-04-05T04:19:00.040Z,97678.86
2019-04-05T04:21:40.674Z,97672.30
2019-04-05T04:24:08.934Z,97673.59
2019-04-05T04:26:37.171Z,97677.96
2019-04-05T04:29:05.705Z,97687.64
2019-04-05T04:31:33.964Z,97683.69
2019-04-05T04:34:02.374Z,97688.95
2019-04-05T04:36:30.662Z,97691.63
2019-04-05T04:38:58.902Z,97696.87
2019-04-05T04:41:27.197Z,97697.75
2019-04-05T04:43:55.446Z,97699.03
2019-04-05T04:46:23.688Z,97706.05
2019-04-05T04:48:52.291Z,97712.20
2019-04-05T04:51:20.537Z,97716.17
2019-04-05T04:53:48.921Z,97717.05
2019-04-05T04:56:17.173Z,97723.17
2019-04-05T04:58:46.357Z,97730.65
2019-04-05T05:01:14.848Z,97737.20
2019-04-05T05:03:43.122Z,97738.52
2019-04-05T05:06:11.376Z,97741.17
2019-04-05T05:08:39.651Z,97739.41
2019-04-05T05:11:14.411Z,97743.73
2019-04-05T05:13:37.921Z,97740.66
2019-04-05T05:16:06.171Z,97730.59
2019-04-05T05:18:34.415Z,97735.83
2019-04-05T05:21:02.690Z,97733.22
2019-04-05T05:23:30.939Z,97728.84
2019-04-05T05:25:59.220Z,97727.99
2019-04-05T05:28:27.467Z,97728.84
2019-04-05T05:30:55.764Z,97735.83
2019-04-05T05:33:24.010Z,97741.98
2019-04-05T05:35:52.316Z,97745.48
2019-04-05T05:38:20.565Z,97746.78
2019-04-05T05:40:48.804Z,97743.73
2019-04-05T05:43:17.094Z,97740.20
2019-04-05T05:45:45.604Z,97745.02
2019-04-05T05:48:14.172Z,97745.94
2019-04-05T05:50:42.388Z,97751.65
2019-04-05T05:53:10.670Z,97742.45
2019-04-05T05:55:38.910Z,97733.23
2019-04-05T05:58:07.190Z,97739.36
2019-04-05T06:00:35.611Z,97740.26
2019-04-05T06:03:06.217Z,97746.41
2019-04-05T06:05:34.292Z,97756.48
2019-04-05T06:08:02.593Z,97754.31
2019-04-05T06:10:30.846Z,97760.91
2019-04-05T06:12:59.097Z,97765.33
2019-04-05T06:15:27.372Z,97767.08
2019-04-05T06:18:04.489Z,97771.88
2019-04-05T06:20:25.624Z,97769.65
2019-04-05T06:22:53.866Z,97766.62
2019-04-05T06:25:22.175Z,97772.30
2019-04-05T06:27:50.391Z,97774.03
2019-04-05T06:30:18.683Z,97778.85
2019-04-05T06:32:46.937Z,97785.02
2019-04-05T06:35:15.176Z,97792.91
2019-04-05T06:37:43.462Z,97790.30
2019-04-05T06:40:11.697Z,97787.22
2019-04-05T06:42:39.971Z,97781.04
2019-04-05T06:45:08.212Z,97781.03
2019-04-05T06:47:36.502Z,97776.69
2019-04-05T06:50:07.189Z,97790.27
2019-04-05T06:52:35.533Z,97792.46
2019-04-05T06:55:04.524Z,97785.02
2019-04-05T06:57:32.812Z,97786.78
2019-04-05T07:00:01.058Z,97788.98
2019-04-05T07:02:29.357Z,97792.05
2019-04-05T07:04:57.611Z,97797.28
2019-04-05T07:07:25.845Z,97799.05
2019-04-05T07:09:54.139Z,97802.98
2019-04-05T07:12:22.378Z,97803.84
2019-04-05T07:14:50.654Z,97805.14
2019-04-05T07:17:18.921Z,97802.53
2019-04-05T07:19:47.252Z,97801.68
2019-04-05T07:22:15.508Z,97795.11
2019-04-05T07:24:43.775Z,97797.28
2019-04-05T07:27:12.014Z,97792.01
2019-04-05T07:29:40.294Z,97792.00
2019-04-05T07:32:08.534Z,97791.16
2019-04-05T07:34:36.778Z,97795.53
2019-04-05T07:37:05.058Z,97786.78
2019-04-05T07:39:33.302Z,97792.88
2019-04-05T07:42:01.594Z,97795.52
2019-04-05T07:44:29.833Z,97798.14
2019-04-05T07:46:58.120Z,97802.52
2019-04-05T07:49:26.362Z,97806.03
2019-04-05T07:51:54.655Z,97805.14
2019-04-05T07:54:22.889Z,97812.16
2019-04-05T07:56:51.193Z,97803.83
2019-04-05T07:59:20.889Z,97804.70
2019-04-05T08:01:49.370Z,97807.78
2019-04-05T08:04:17.642Z,97805.09
2019-04-05T08:06:46.066Z,97806.41
2019-04-05T08:09:14.349Z,97811.27
2019-04-05T08:11:43.726Z,97809.95
2019-04-05T08:14:12.337Z,97809.53
2019-04-05T08:16:40.579Z,97814.80
2019-04-05T08:19:08.863Z,97816.96
2019-04-05T08:21:37.107Z,97820.91
2019-04-05T08:24:05.401Z,97816.52
2019-04-05T08:26:33.642Z,97826.58
2019-04-05T08:29:01.889Z,97826.16
2019-04-05T08:31:30.178Z,97827.46
2019-04-05T08:33:58.421Z,97837.97
2019-04-05T08:36:26.723Z,97834.94
2019-04-05T08:38:54.973Z,97836.67
2019-04-05T08:41:23.251Z,97836.66
2019-04-05T08:43:51.492Z,97830.03
2019-04-05T08:46:19.763Z,97830.03
2019-04-05T08:48:48.010Z,97832.22
2019-04-05T08:51:16.282Z,97826.52
2019-04-05T08:53:44.518Z,97832.23
2019-04-05T08:56:12.794Z,97829.15
2019-04-05T08:58:41.034Z,97827.86
2019-04-05T09:01:09.274Z,97824.77
2019-04-05T09:03:37.567Z,97826.97
2019-04-05T09:06:05.795Z,97824.27
2019-04-05T09:08:34.080Z,97829.11
2019-04-05T09:11:02.345Z,97823.85
2019-04-05T09:13:30.626Z,97825.12
2019-04-05T09:15:58.947Z,97827.77
2019-04-05T09:18:27.218Z,97827.30
2019-04-05T09:20:55.446Z,97833.42
2019-04-05T09:23:23.760Z,97830.42
2019-04-05T09:25:52.070Z,97831.30
2019-04-05T09:28:20.381Z,97832.17
2019-04-05T09:30:51.544Z,97821.66
2019-04-05T09:33:18.631Z,97824.70
2019-04-05T09:35:46.894Z,97825.58
2019-04-05T09:38:15.136Z,97829.92
2019-04-05T09:40:43.730Z,97837.37
2019-04-05T09:43:11.988Z,97836.06
2019-04-05T09:45:40.331Z,97835.61
2019-04-05T09:48:08.569Z,97840.88
2019-04-05T09:50:36.980Z,97836.48
2019-04-05T09:53:05.227Z,97840.07
2019-04-05T09:55:33.519Z,97837.44
2019-04-05T09:58:01.767Z,97835.63
2019-04-05T10:00:30.026Z,97842.21
2019-04-05T10:02:58.305Z,97845.26
2019-04-05T10:05:26.833Z,97841.30
2019-04-05T10:07:55.930Z,97838.19
2019-04-05T10:10:24.345Z,97840.82
2019-04-05T10:12:52.617Z,97839.95
2019-04-05T10:15:21.963Z,97827.70
2019-04-05T10:17:50.437Z,97829.43
2019-04-05T10:20:18.688Z,97828.41
2019-04-05T10:22:46.961Z,97828.85
2019-04-05T10:25:15.205Z,97839.81
2019-04-05T10:27:43.474Z,97830.52
2019-04-05T10:30:12.059Z,97837.98
2019-04-05T10:32:40.350Z,97836.64
2019-04-05T10:35:08.592Z,97837.98
2019-04-05T10:37:36.831Z,97847.73
2019-04-05T10:40:05.872Z,97855.18
2019-04-05T10:42:35.062Z,97854.31
2019-04-05T10:45:03.338Z,97859.56
2019-04-05T10:47:31.623Z,97864.25
2019-04-05T10:50:03.322Z,97863.80
2019-04-05T10:52:29.864Z,97864.64
2019-04-05T10:54:58.193Z,97870.37
2019-04-05T10:57:26.415Z,97874.77
2019-04-05T10:59:54.766Z,97875.23
2019-04-05T11:02:23.033Z,97873.89
2019-04-05T11:04:51.292Z,97885.30
2019-04-05T11:07:19.554Z,97882.23
2019-04-05T11:09:47.809Z,97878.72
2019-04-05T11:12:16.095Z,97878.35
2019-04-05T11:14:44.337Z,97882.70
2019-04-05T11:17:12.618Z,97878.70
2019-04-05T11:19:40.863Z,97877.38
2019-04-05T11:22:09.134Z,97873.00
2019-04-05T11:24:37.371Z,97876.52
2019-04-05T11:27:06.760Z,97882.65
2019-04-05T11:29:35.175Z,97881.34
2019-04-05T11:32:03.529Z,97883.53
2019-04-05T11:34:31.777Z,97879.14
2019-04-05T11:37:02.703Z,97888.80
2019-04-05T11:39:30.038Z,97884.83
2019-04-05T11:41:58.415Z,97891.45
2019-04-05T11:44:27.635Z,97886.23
2019-04-05T11:46:55.873Z,97888.45
2019-04-05T11:49:24.162Z,97888.43
2019-04-05T11:51:52.938Z,97880.54
2019-04-05T11:54:21.216Z,97890.63
2019-04-05T11:56:49.460Z,97888.43
2019-04-05T11:59:17.714Z,97892.36
2019-04-05T12:01:47.618Z,97892.75
2019-04-05T12:04:15.862Z,97893.66
2019-04-05T12:06:44.138Z,97901.56
2019-04-05T12:09:12.392Z,97890.58
2019-04-05T12:11:40.662Z,97891.01
2019-04-05T12:14:08.902Z,97893.64
2019-04-05T12:16:37.188Z,97895.41
2019-04-05T12:19:05.559Z,97896.73
2019-04-05T12:21:34.775Z,97896.72
2019-04-05T12:24:03.732Z,97897.16
2019-04-05T12:26:32.418Z,97898.91
2019-04-05T12:29:01.983Z,97901.98
2019-04-05T12:31:30.245Z,97886.97
2019-04-05T12:33:58.530Z,97897.54
2019-04-05T12:36:26.779Z,97889.18
2019-04-05T12:38:55.063Z,97884.28
2019-04-05T12:41:23.315Z,97887.77
2019-04-05T12:43:51.646Z,97878.55
2019-04-05T12:46:19.912Z,97878.96
2019-04-05T12:48:48.459Z,97876.34
2019-04-05T12:51:16.694Z,97875.02
2019-04-05T12:53:44.983Z,97875.01
2019-04-05T12:56:13.221Z,97873.23
2019-04-05T12:58:41.472Z,97872.81
2019-04-05T13:01:09.758Z,97876.31
2019-04-05T13:03:38.001Z,97873.67
2019-04-05T13:06:06.292Z,97871.93
2019-04-05T13:08:34.537Z,97870.15
2019-04-05T13:11:02.836Z,97873.64
2019-04-05T13:13:31.143Z,97872.77
2019-04-05T13:15:59.650Z,97871.44
2019-04-05T13:18:30.476Z,97868.38
2019-04-05T13:20:58.261Z,97878.48
2019-04-05T13:23:28.058Z,97867.94
2019-04-05T13:25:56.311Z,97865.25
2019-04-05T13:28:24.586Z,97870.90
2019-04-05T13:30:55.283Z,97862.13
2019-04-05T13:33:23.511Z,97864.77
2019-04-05T13:35:52.378Z,97856.75
2019-04-05T13:38:20.663Z,97853.22
2019-04-05T13:40:48.936Z,97858.09
2019-04-05T13:43:17.853Z,97855.80
2019-04-05T13:45:46.134Z,97857.52
2019-04-05T13:48:15.308Z,97864.09
2019-04-05T13:50:43.549Z,97868.50
2019-04-05T13:53:12.019Z,97867.06
2019-04-05T13:55:40.651Z,97866.16
2019-04-05T13:58:11.364Z,97864.41
2019-04-05T14:00:39.578Z,97863.08
2019-04-05T14:03:07.819Z,97856.93
2019-04-05T14:05:36.103Z,97853.78
2019-04-05T14:08:10.380Z,97857.16
2019-04-05T14:10:34.343Z,97861.20
2019-04-05T14:13:02.664Z,97857.38
2019-04-05T14:15:31.504Z,97860.08
2019-04-05T14:17:59.876Z,97855.80
2019-04-05T14:20:28.183Z,97852.27
2019-04-05T14:22:56.417Z,97856.63
2019-04-05T14:25:26.057Z,97851.78
2019-04-05T14:27:54.668Z,97854.40
2019-04-05T14:30:22.927Z,97859.69
2019-04-05T14:32:55.261Z,97855.72
2019-04-05T14:35:24.512Z,97857.48
2019-04-05T14:37:54.145Z,97853.06
2019-04-05T14:40:21.165Z,97853.83
2019-04-05T14:42:49.447Z,97856.57
2019-04-05T14:45:17.705Z,97860.16
2019-04-05T14:47:45.994Z,97859.71
2019-04-05T14:50:15.975Z,97851.31
2019-04-05T14:52:44.241Z,97854.03
2019-04-05T14:55:12.495Z,97849.66
2019-04-05T14:57:40.808Z,97840.34
2019-04-05T15:00:09.781Z,97848.67
2019-04-05T15:02:38.160Z,97851.73
2019-04-05T15:05:07.088Z,97853.93
2019-04-05T15:07:37.654Z,97855.75
2019-04-05T15:10:05.880Z,97859.38
2019-04-05T15:12:34.123Z,97858.86
2019-04-05T15:15:02.429Z,97864.05
2019-04-05T15:17:30.677Z,97867.12
2019-04-05T15:19:58.965Z,97862.72
2019-04-05T15:22:27.775Z,97863.57
2019-04-05T15:24:56.194Z,97863.16
2019-04-05T15:27:24.437Z,97861.86
2019-04-05T15:29:55.324Z,97861.08
2019-04-05T15:32:23.393Z,97858.38
2019-04-05T15:34:52.712Z,97859.14
2019-04-05T15:37:20.987Z,97855.14
2019-04-05T15:39:49.240Z,97853.80
2019-04-05T15:42:17.512Z,97854.31
2019-04-05T15:44:45.757Z,97863.53
2019-04-05T15:47:14.111Z,97870.16
2019-04-05T15:49:42.357Z,97863.14
2019-04-05T15:52:18.660Z,97865.30
2019-04-05T15:54:43.073Z,97861.78
2019-04-05T15:57:10.629Z,97864.40
2019-04-05T15:59:38.887Z,97866.23
2019-04-05T16:02:07.193Z,97868.45
2019-04-05T16:04:35.443Z,97868.48
2019-04-05T16:07:03.703Z,97866.29
2019-04-05T16:09:31.974Z,97864.52
2019-04-05T16:12:00.219Z,97869.27
2019-04-05T16:14:28.497Z,97875.03
2019-04-05T16:16:56.748Z,97867.58
2019-04-05T16:19:25.099Z,97869.37
2019-04-05T16:21:53.350Z,97877.22
2019-04-05T16:24:21.635Z,97875.05
2019-04-05T16:26:49.884Z,97878.55
2019-04-05T16:29:18.184Z,97880.37
2019-04-05T16:31:46.426Z,97879.47
2019-04-05T16:34:14.669Z,97877.71
2019-04-05T16:36:42.946Z,97881.69
2019-04-05T16:39:15.584Z,97875.56
2019-04-05T16:41:43.862Z,97875.56
2019-04-05T16:44:12.110Z,97883.88
2019-04-05T16:46:40.407Z,97877.73
2019-04-05T16:49:08.648Z,97879.05
2019-04-05T16:51:36.930Z,97876.41
2019-04-05T16:54:05.183Z,97876.39
2019-04-05T16:56:33.480Z,97872.45
2019-04-05T16:59:01.723Z,97871.56
2019-04-05T17:01:30.044Z,97867.61
2019-04-05T17:03:58.328Z,97877.70
2019-04-05T17:06:26.575Z,97879.92
2019-04-05T17:08:54.849Z,97882.98
2019-04-05T17:11:23.086Z,97876.83
2019-04-05T17:13:51.360Z,97884.33
2019-04-05T17:16:19.606Z,97882.58
2019-04-05T17:18:47.900Z,97879.52
2019-04-05T17:21:16.150Z,97880.02
2019-04-05T17:23:44.431Z,97877.84
2019-04-05T17:26:12.695Z,97878.70
2019-04-05T17:28:40.964Z,97882.61
2019-04-05T17:31:09.241Z,97881.80
2019-04-05T17:33:37.499Z,97882.69
2019-04-05T17:36:05.867Z,97883.58
2019-04-05T17:38:34.111Z,97889.28
2019-04-05T17:41:02.403Z,97889.30
2019-04-05T17:43:30.644Z,97883.16
2019-04-05T17:45:58.927Z,97885.80
2019-04-05T17:48:27.184Z,97875.28
2019-04-05T17:50:55.431Z,97881.38
2019-04-05T17:53:23.702Z,97884.01
2019-04-05T17:55:51.946Z,97892.83
2019-04-05T17:58:20.220Z,97896.41
2019-04-05T18:00:48.580Z,97901.71
2019-04-05T18:03:16.829Z,97900.89
2019-04-05T18:05:45.078Z,97904.84
2019-04-05T18:08:13.362Z,97902.20
2019-04-05T18:10:41.613Z,97907.94
2019-04-05T18:13:09.887Z,97903.54
2019-04-05T18:15:42.284Z,97909.68
2019-04-05T18:18:08.129Z,97910.54
2019-04-05T18:20:36.458Z,97909.23
2019-04-05T18:23:04.720Z,97923.30
2019-04-05T18:25:33.006Z,97917.56
2019-04-05T18:28:01.248Z,97916.69
2019-04-05T18:30:29.553Z,97916.70
2019-04-05T18:32:57.794Z,97910.51
2019-04-05T18:35:26.083Z,97917.94
2019-04-05T18:37:54.332Z,97921.48
2019-04-05T18:40:22.611Z,97925.86
2019-04-05T18:42:50.879Z,97928.05
2019-04-05T18:45:19.169Z,97929.78
2019-04-05T18:47:47.431Z,97927.13
2019-04-05T18:50:15.677Z,97927.13
2019-04-05T18:52:43.959Z,97925.37
2019-04-05T18:55:12.213Z,97929.29
2019-04-05T18:57:40.485Z,97921.81
2019-04-05T19:00:08.746Z,97929.27
2019-04-05T19:02:37.039Z,97925.30
2019-04-05T19:05:08.314Z,97922.67
2019-04-05T19:07:36.587Z,97925.78
2019-04-05T19:10:06.869Z,97924.05
2019-04-05T19:12:35.271Z,97931.09
2019-04-05T19:15:04.561Z,97927.12
2019-04-05T19:17:32.809Z,97928.44
2019-04-05T19:20:01.098Z,97930.67
2019-04-05T19:22:29.349Z,97928.48
2019-04-05T19:24:57.630Z,97923.24
2019-04-05T19:27:25.893Z,97925.47
2019-04-05T19:29:54.176Z,97925.47
2019-04-05T19:49:52.392Z,97939.09
2019-04-05T19:52:20.645Z,97932.52
2019-04-05T19:54:48.928Z,97937.78
2019-04-05T19:57:17.190Z,97925.92
2019-04-05T19:59:45.477Z,97930.30
2019-04-05T20:02:13.723Z,97928.09
2019-04-05T20:04:42.007Z,97934.23
2019-04-05T20:07:10.339Z,97935.95
2019-04-05T20:09:38.731Z,97931.98
2019-04-05T20:12:06.982Z,97934.19
2019-04-05T20:14:35.263Z,97940.78
2019-04-05T20:17:03.511Z,97942.97
2019-04-05T20:19:31.791Z,97946.06
2019-04-05T20:22:00.033Z,97940.82
2019-04-05T20:24:28.329Z,97943.47
2019-04-05T20:26:56.568Z,97944.31
2019-04-05T20:29:24.873Z,97947.81
2019-04-05T20:31:53.125Z,97957.52
2019-04-05T20:34:21.407Z,97963.69
2019-04-05T20:36:49.654Z,97961.05
2019-04-05T20:39:17.933Z,97956.64
2019-04-05T20:41:46.193Z,97968.08
2019-04-05T20:44:14.435Z,97965.91
2019-04-05T20:46:42.729Z,97962.78
2019-04-05T20:49:12.024Z,97963.21
2019-04-05T20:51:40.452Z,97969.34
2019-04-05T20:54:08.697Z,97968.87
2019-04-05T20:56:36.975Z,97965.33
2019-04-05T20:59:05.224Z,97966.25
2019-04-05T21:01:33.519Z,97969.79
2019-04-05T21:04:01.767Z,97965.86
2019-04-05T21:06:30.044Z,97964.11
2019-04-05T21:08:58.287Z,97969.86
2019-04-05T21:11:27.256Z,97967.66
2019-04-05T21:13:55.607Z,97969.44
2019-04-05T21:16:23.849Z,97965.91
2019-04-05T21:18:52.130Z,97969.00
2019-04-05T21:21:20.407Z,97966.80
2019-04-05T21:23:48.721Z,97965.48
2019-04-05T21:26:16.984Z,97966.37
2019-04-05T21:28:45.309Z,97962.39
2019-04-05T21:31:13.583Z,97961.06
2019-04-05T21:33:41.879Z,97949.64
2019-04-05T21:36:10.161Z,97955.78
2019-04-05T21:38:38.437Z,97951.81
2019-04-05T21:41:06.745Z,97951.84
2019-04-05T21:43:35.015Z,97954.47
2019-04-05T21:46:03.326Z,97950.12
2019-04-05T21:48:31.597Z,97946.99
2019-04-05T21:50:59.897Z,97957.11
2019-04-05T21:53:28.157Z,97954.95
2019-04-05T21:55:56.466Z,97951.89
2019-04-05T21:58:25.951Z,97953.20
2019-04-05T22:00:58.808Z,97947.48
2019-04-05T22:03:27.139Z,97954.05
2019-04-05T22:05:55.436Z,97948.37
2019-04-05T22:08:23.718Z,97962.42
2019-04-05T22:10:51.991Z,97961.12
2019-04-05T22:13:20.648Z,97956.70
2019-04-05T22:15:48.887Z,97960.66
2019-04-05T22:18:17.188Z,97960.69
2019-04-05T22:20:45.478Z,97963.34
2019-04-05T22:23:13.817Z,97969.48
2019-04-05T22:25:42.116Z,97963.78
2019-04-05T22:28:10.413Z,97962.50
2019-04-05T22:30:38.694Z,97972.13
2019-04-05T22:33:06.975Z,97965.14
2019-04-05T22:35:35.297Z,97968.22
2019-04-05T22:38:03.651Z,97971.71
2019-04-05T22:40:32.041Z,97968.22
2019-04-05T22:43:00.327Z,97971.28
2019-04-05T22:45:28.664Z,97966.94
2019-04-05T22:47:56.935Z,97969.10
2019-04-05T22:50:25.215Z,97973.47
2019-04-05T22:52:53.523Z,97969.93
2019-04-05T22:55:21.835Z,97971.25
2019-04-05T22:57:50.145Z,97974.31
2019-04-05T23:00:18.420Z,97970.81
2019-04-05T23:02:46.740Z,97969.08
2019-04-05T23:05:15.032Z,97967.75
2019-04-05T23:07:43.352Z,97969.12
2019-04-05T23:10:11.704Z,97971.34
2019-04-05T23:12:40.036Z,97977.05
2019-04-05T23:15:08.574Z,97974.87
2019-04-05T23:17:36.886Z,97973.13
2019-04-05T23:20:05.744Z,97972.72
2019-04-05T23:22:34.048Z,97978.45
2019-04-05T23:25:02.336Z,97972.28
2019-04-05T23:27:30.650Z,97971.42
2019-04-05T23:29:58.940Z,97969.66
2019-04-05T23:32:27.265Z,97976.70
2019-04-05T23:34:55.544Z,97974.95
2019-04-05T23:37:23.844Z,97976.28
2019-04-05T23:39:52.127Z,97982.42
2019-04-05T23:42:20.445Z,97980.23
2019-04-05T23:44:48.751Z,97996.02
2019-04-05T23:47:17.261Z,97985.98
2019-04-05T23:49:45.541Z,97996.52
2019-04-05T23:52:13.846Z,97996.96
2019-04-05T23:54:42.123Z,97992.99
2019-04-05T23:57:10.417Z,97996.48
2019-04-05T23:59:38.716Z,97999.10
